createdAt,value
2016-02-27T00:00:33.125Z,0
2016-02-27T00:01:33.595Z,0
2016-02-27T00:02:45.723Z,0
2016-02-27T00:03:32.961Z,0
2016-02-27T00:04:52.182Z,0
2016-02-27T00:05:33.574Z,0
2016-02-27T00:06:58.734Z,0
2016-02-27T00:07:33.065Z,0
2016-02-27T00:09:30.255Z,0
2016-02-27T00:09:45.867Z,0
2016-02-27T00:11:58.059Z,0
2016-02-27T00:13:23.781Z,0
2016-02-27T00:13:58.409Z,0
2016-02-27T00:15:48.601Z,0
2016-02-27T00:16:01.164Z,0
2016-02-27T00:17:58.404Z,0
2016-02-27T00:18:11.201Z,0
2016-02-27T00:19:42.644Z,0
2016-02-27T00:20:17.331Z,0
2016-02-27T00:22:13.650Z,0
2016-02-27T00:22:51.902Z,0
2016-02-27T00:23:26.245Z,0
2016-02-27T00:25:23.266Z,0
2016-02-27T00:25:35.847Z,0
2016-02-27T00:27:38.477Z,0
2016-02-27T00:28:10.290Z,0
2016-02-27T00:28:51.121Z,0
2016-02-27T00:31:00.782Z,0
2016-02-27T00:31:57.411Z,0
2016-02-27T00:36:21.063Z,0
2016-02-27T00:36:55.158Z,0
2016-02-27T00:38:38.523Z,0
2016-02-27T00:39:16.601Z,0
2016-02-27T00:41:19.451Z,0
2016-02-27T00:41:32.029Z,0
2016-02-27T00:43:34.662Z,0
2016-02-27T00:44:18.521Z,0
2016-02-27T00:44:47.304Z,0
2016-02-27T00:46:18.590Z,0
2016-02-27T00:47:00.045Z,0
2016-02-27T00:47:47.922Z,0
2016-02-27T00:49:06.535Z,0
2016-02-27T00:49:47.537Z,0
2016-02-27T00:51:18.508Z,0
2016-02-27T00:51:47.386Z,0
2016-02-27T00:53:53.032Z,0
2016-02-27T00:54:24.845Z,0
2016-02-27T00:55:05.769Z,0
2016-02-27T00:56:05.662Z,0
2016-02-27T00:57:08.244Z,0
2016-02-27T00:58:11.964Z,0
2016-02-27T00:59:14.999Z,0
2016-02-27T01:00:24.923Z,0
2016-02-27T01:01:18.675Z,0
2016-02-27T01:04:31.513Z,0
2016-02-27T01:05:24.905Z,0
2016-02-27T01:07:08.442Z,0
2016-02-27T01:07:40.320Z,0
2016-02-27T01:08:21.039Z,0
2016-02-27T01:10:19.529Z,0
2016-02-27T01:11:43.174Z,0
2016-02-27T01:12:55.865Z,0
2016-02-27T01:13:43.132Z,0
2016-02-27T01:16:18.404Z,0
2016-02-27T01:18:53.005Z,0
2016-02-27T01:19:24.770Z,0
2016-02-27T01:20:36.918Z,0
2016-02-27T01:22:35.311Z,0
2016-02-27T01:23:19.079Z,0
2016-02-27T01:24:38.600Z,0
2016-02-27T01:25:10.381Z,0
2016-02-27T01:27:16.089Z,0
2016-02-27T01:27:59.967Z,0
2016-02-27T01:28:34.983Z,0
2016-02-27T01:29:28.719Z,0
2016-02-27T01:31:54.259Z,0
2016-02-27T01:34:38.549Z,0
2016-02-27T01:36:00.958Z,0
2016-02-27T01:36:45.491Z,0
2016-02-27T01:38:16.197Z,0
2016-02-27T01:38:54.560Z,0
2016-02-27T01:39:41.530Z,0
2016-02-27T01:41:20.033Z,0
2016-02-27T01:41:48.427Z,0
2016-02-27T01:43:49.276Z,0
2016-02-27T01:44:01.870Z,0
2016-02-27T01:46:05.172Z,0
2016-02-27T01:46:17.782Z,0
2016-02-27T01:47:17.971Z,0
2016-02-27T01:48:24.256Z,0
2016-02-27T01:49:30.524Z,0
2016-02-27T01:50:30.776Z,0
2016-02-27T01:51:43.719Z,0
2016-02-27T01:52:30.578Z,0
2016-02-27T01:58:08.501Z,0
2016-02-27T01:58:42.832Z,0
2016-02-27T02:00:45.447Z,0
2016-02-27T02:01:36.697Z,0
2016-02-27T02:01:58.043Z,0
2016-02-27T02:04:00.689Z,0
2016-02-27T02:04:38.958Z,0
2016-02-27T02:05:13.286Z,0
2016-02-27T02:08:32.560Z,0
2016-02-27T02:09:58.408Z,0
2016-02-27T02:10:39.005Z,0
2016-02-27T02:12:04.054Z,0
2016-02-27T02:12:45.526Z,0
2016-02-27T02:14:51.985Z,0
2016-02-27T02:15:32.875Z,0
2016-02-27T02:16:53.505Z,0
2016-02-27T02:17:39.149Z,0
2016-02-27T02:19:29.854Z,0
2016-02-27T02:21:11.062Z,0
2016-02-27T02:21:51.862Z,0
2016-02-27T02:23:23.179Z,0
2016-02-27T02:23:51.868Z,0
2016-02-27T02:26:01.623Z,0
2016-02-27T02:26:14.326Z,0
2016-02-27T02:28:17.051Z,0
2016-02-27T02:28:29.676Z,0
2016-02-27T02:29:29.662Z,0
2016-02-27T02:30:36.150Z,0
2016-02-27T02:31:36.059Z,0
2016-02-27T02:32:42.408Z,0
2016-02-27T02:33:42.005Z,0
2016-02-27T02:35:32.961Z,0
2016-02-27T02:37:29.872Z,0
2016-02-27T02:37:41.811Z,0
2016-02-27T02:39:33.908Z,0
2016-02-27T02:39:48.004Z,0
2016-02-27T02:41:49.136Z,0
2016-02-27T02:42:01.730Z,0
2016-02-27T02:43:01.763Z,0
2016-02-27T02:44:01.953Z,0
2016-02-27T02:45:01.971Z,0
2016-02-27T02:46:02.224Z,0
2016-02-27T02:47:08.085Z,0
2016-02-27T02:48:21.010Z,0
2016-02-27T02:49:21.013Z,0
2016-02-27T02:50:33.173Z,0
2016-02-27T02:51:21.066Z,0
2016-02-27T02:52:01.865Z,0
2016-02-27T02:53:58.105Z,0
2016-02-27T02:54:10.887Z,0
2016-02-27T02:55:10.701Z,0
2016-02-27T02:56:10.720Z,0
2016-02-27T02:57:16.972Z,0
2016-02-27T02:58:10.709Z,0
2016-02-27T02:59:11.368Z,0
2016-02-27T03:00:11.339Z,0
2016-02-27T03:01:10.765Z,0
2016-02-27T03:02:10.876Z,0
2016-02-27T03:03:11.020Z,0
2016-02-27T03:04:17.053Z,0
2016-02-27T03:05:11.025Z,0
2016-02-27T03:06:17.075Z,0
2016-02-27T03:07:11.077Z,0
2016-02-27T03:08:23.080Z,0
2016-02-27T03:09:23.692Z,0
2016-02-27T03:10:30.055Z,0
2016-02-27T03:11:24.072Z,0
2016-02-27T03:12:30.357Z,0
2016-02-27T03:13:12.516Z,0
2016-02-27T03:14:36.908Z,0
2016-02-27T03:15:14.005Z,0
2016-02-27T03:16:38.023Z,0
2016-02-27T03:17:17.292Z,0
2016-02-27T03:19:13.641Z,0
2016-02-27T03:19:45.440Z,0
2016-02-27T03:20:26.253Z,0
2016-02-27T03:21:39.256Z,0
2016-02-27T03:22:26.274Z,0
2016-02-27T03:24:16.951Z,0
2016-02-27T03:24:35.889Z,0
2016-02-27T03:25:29.767Z,0
2016-02-27T03:26:30.223Z,0
2016-02-27T03:27:29.397Z,0
2016-02-27T03:28:42.353Z,0
2016-02-27T03:29:36.309Z,0
2016-02-27T03:30:55.267Z,0
2016-02-27T03:31:42.376Z,0
2016-02-27T03:32:55.272Z,0
2016-02-27T03:34:27.212Z,0
2016-02-27T03:35:05.543Z,0
2016-02-27T03:36:30.547Z,0
2016-02-27T03:37:15.080Z,0
2016-02-27T03:38:02.333Z,0
2016-02-27T03:39:03.773Z,0
2016-02-27T03:40:40.228Z,0
2016-02-27T03:41:05.513Z,0
2016-02-27T03:42:44.190Z,0
2016-02-27T03:43:53.739Z,0
2016-02-27T03:44:44.539Z,0
2016-02-27T03:45:06.430Z,0
2016-02-27T03:46:51.294Z,0
2016-02-27T03:47:07.763Z,0
2016-02-27T03:48:51.222Z,0
2016-02-27T03:49:19.128Z,0
2016-02-27T03:51:25.961Z,0
2016-02-27T03:52:07.027Z,0
2016-02-27T03:53:32.092Z,0
2016-02-27T03:54:06.423Z,0
2016-02-27T03:56:09.068Z,0
2016-02-27T03:56:21.631Z,0
2016-02-27T03:57:21.681Z,0
2016-02-27T03:58:27.901Z,0
2016-02-27T03:59:22.467Z,0
2016-02-27T04:00:21.986Z,0
2016-02-27T04:01:22.301Z,0
2016-02-27T04:02:21.710Z,0
2016-02-27T04:03:21.744Z,0
2016-02-27T04:04:21.731Z,0
2016-02-27T04:05:27.999Z,0
2016-02-27T04:06:28.017Z,0
2016-02-27T04:07:34.472Z,0
2016-02-27T04:08:22.461Z,0
2016-02-27T04:09:40.979Z,0
2016-02-27T04:10:28.263Z,0
2016-02-27T04:11:47.503Z,0
2016-02-27T04:12:34.550Z,0
2016-02-27T04:13:47.508Z,0
2016-02-27T04:14:41.039Z,0
2016-02-27T04:17:15.749Z,0
2016-02-27T04:17:37.296Z,0
2016-02-27T04:18:37.268Z,0
2016-02-27T04:19:45.102Z,0
2016-02-27T04:20:37.368Z,0
2016-02-27T04:21:37.261Z,0
2016-02-27T04:22:37.326Z,0
2016-02-27T04:23:37.313Z,0
2016-02-27T04:24:43.596Z,0
2016-02-27T04:25:38.757Z,0
2016-02-27T04:26:37.352Z,0
2016-02-27T04:27:50.062Z,0
2016-02-27T04:28:38.765Z,0
2016-02-27T04:29:56.555Z,0
2016-02-27T04:30:37.383Z,0
2016-02-27T04:31:43.748Z,0
2016-02-27T04:32:37.377Z,0
2016-02-27T04:33:50.294Z,0
2016-02-27T04:34:43.638Z,0
2016-02-27T04:36:46.756Z,0
2016-02-27T04:37:59.597Z,0
2016-02-27T04:38:41.066Z,0
2016-02-27T04:40:43.095Z,0
2016-02-27T04:41:21.346Z,0
2016-02-27T04:42:14.894Z,0
2016-02-27T04:43:21.334Z,0
2016-02-27T04:44:21.366Z,0
2016-02-27T04:45:27.040Z,0
2016-02-27T04:46:53.402Z,0
2016-02-27T04:48:27.951Z,0
2016-02-27T04:48:40.560Z,0
2016-02-27T04:50:37.596Z,0
2016-02-27T04:50:50.208Z,0
2016-02-27T04:51:50.210Z,0
2016-02-27T04:52:50.447Z,0
2016-02-27T04:53:56.574Z,0
2016-02-27T04:54:50.248Z,0
2016-02-27T04:55:51.751Z,0
2016-02-27T04:57:03.004Z,0
2016-02-27T04:58:02.975Z,0
2016-02-27T04:59:03.197Z,0
2016-02-27T05:00:03.011Z,0
2016-02-27T05:00:50.327Z,0
2016-02-27T05:01:50.300Z,0
2016-02-27T05:02:50.317Z,0
2016-02-27T05:03:51.851Z,0
2016-02-27T05:04:50.353Z,0
2016-02-27T05:05:50.622Z,0
2016-02-27T05:06:50.343Z,0
2016-02-27T05:07:50.455Z,0
2016-02-27T05:08:50.989Z,0
2016-02-27T05:10:03.117Z,0
2016-02-27T05:11:03.167Z,0
2016-02-27T05:12:47.404Z,0
2016-02-27T05:13:25.704Z,0
2016-02-27T05:15:28.302Z,0
2016-02-27T05:15:40.880Z,0
2016-02-27T05:16:53.620Z,0
2016-02-27T05:17:40.901Z,0
2016-02-27T05:19:50.660Z,0
2016-02-27T05:20:34.582Z,0
2016-02-27T05:21:03.428Z,0
2016-02-27T05:22:03.478Z,0
2016-02-27T05:23:03.370Z,0
2016-02-27T05:24:15.998Z,0
2016-02-27T05:25:04.767Z,0
2016-02-27T05:26:22.489Z,0
2016-02-27T05:27:22.554Z,0
2016-02-27T05:29:05.918Z,0
2016-02-27T05:29:44.168Z,0
2016-02-27T05:30:18.515Z,0
2016-02-27T05:32:21.411Z,0
2016-02-27T05:32:59.725Z,0
2016-02-27T05:33:34.303Z,0
2016-02-27T05:35:32.403Z,0
2016-02-27T05:35:45.028Z,0
2016-02-27T05:37:42.002Z,0
2016-02-27T05:37:54.536Z,0
2016-02-27T05:40:29.791Z,0
2016-02-27T05:41:04.341Z,0
2016-02-27T05:42:04.172Z,0
2016-02-27T05:43:16.910Z,0
2016-02-27T05:44:04.333Z,0
2016-02-27T05:46:07.479Z,0
2016-02-27T05:47:04.123Z,0
2016-02-27T05:47:39.263Z,0
2016-02-27T05:49:51.897Z,0
2016-02-27T05:51:20.274Z,0
2016-02-27T05:52:29.840Z,0
2016-02-27T05:52:42.434Z,0
2016-02-27T05:55:11.192Z,0
2016-02-27T05:56:04.834Z,0
2016-02-27T05:58:42.746Z,0
2016-02-27T05:59:40.484Z,0
2016-02-27T05:59:55.361Z,0
2016-02-27T06:01:52.304Z,0
2016-02-27T06:02:04.882Z,0
2016-02-27T06:04:02.575Z,0
2016-02-27T06:05:12.140Z,0
2016-02-27T06:05:24.765Z,0
2016-02-27T06:06:24.752Z,0
2016-02-27T06:07:25.317Z,0
2016-02-27T06:08:37.522Z,0
2016-02-27T06:09:37.636Z,0
2016-02-27T06:11:41.000Z,0
2016-02-27T06:12:31.205Z,5
2016-02-27T06:13:06.240Z,5
2016-02-27T06:14:06.399Z,5
2016-02-27T06:15:12.838Z,5
2016-02-27T06:16:12.857Z,5
2016-02-27T06:17:50.735Z,5
2016-02-27T06:18:48.004Z,5
2016-02-27T06:19:03.365Z,5
2016-02-27T06:20:34.696Z,10
2016-02-27T06:21:16.121Z,10
2016-02-27T06:22:03.389Z,10
2016-02-27T06:23:03.345Z,10
2016-02-27T06:24:05.706Z,15
2016-02-27T06:25:03.382Z,15
2016-02-27T06:26:03.634Z,15
2016-02-27T06:27:03.449Z,20
2016-02-27T06:28:03.452Z,20
2016-02-27T06:29:03.298Z,20
2016-02-27T06:30:03.536Z,25
2016-02-27T06:31:04.881Z,25
2016-02-27T06:32:03.462Z,30
2016-02-27T06:33:03.356Z,30
2016-02-27T06:34:03.562Z,30
2016-02-27T06:35:03.595Z,35
2016-02-27T06:36:03.614Z,35
2016-02-27T06:37:03.617Z,40
2016-02-27T06:38:16.291Z,40
2016-02-27T06:39:03.575Z,45
2016-02-27T06:40:16.327Z,45
2016-02-27T06:41:03.597Z,45
2016-02-27T06:42:03.568Z,45
2016-02-27T06:43:03.632Z,50
2016-02-27T06:44:03.651Z,50
2016-02-27T06:45:03.841Z,55
2016-02-27T06:46:03.610Z,55
2016-02-27T06:47:03.643Z,60
2016-02-27T06:48:03.677Z,65
2016-02-27T06:49:03.696Z,65
2016-02-27T06:50:03.746Z,70
2016-02-27T06:51:03.733Z,70
2016-02-27T06:52:03.751Z,75
2016-02-27T06:53:16.457Z,80
2016-02-27T06:54:03.741Z,80
2016-02-27T06:55:03.743Z,85
2016-02-27T06:56:03.776Z,85
2016-02-27T06:57:03.779Z,85
2016-02-27T06:58:03.845Z,85
2016-02-27T06:59:03.800Z,90
2016-02-27T07:00:04.054Z,95
2016-02-27T07:01:03.915Z,100
2016-02-27T07:02:04.059Z,105
2016-02-27T07:03:03.937Z,110
2016-02-27T07:04:03.955Z,120
2016-02-27T07:05:03.942Z,135
2016-02-27T07:06:03.928Z,140
2016-02-27T07:07:03.978Z,145
2016-02-27T07:08:03.982Z,155
2016-02-27T07:09:03.969Z,160
2016-02-27T07:10:03.972Z,160
2016-02-27T07:11:03.989Z,165
2016-02-27T07:12:04.024Z,175
2016-02-27T07:13:04.041Z,180
2016-02-27T07:14:03.982Z,185
2016-02-27T07:15:04.047Z,185
2016-02-27T07:16:04.003Z,180
2016-02-27T07:17:04.022Z,175
2016-02-27T07:18:04.118Z,165
2016-02-27T07:19:04.121Z,155
2016-02-27T07:20:04.107Z,150
2016-02-27T07:21:04.173Z,150
2016-02-27T07:22:04.034Z,155
2016-02-27T07:23:04.224Z,155
2016-02-27T07:24:04.103Z,160
2016-02-27T07:25:04.168Z,170
2016-02-27T07:26:04.140Z,170
2016-02-27T07:27:04.189Z,175
2016-02-27T07:28:04.176Z,180
2016-02-27T07:29:04.194Z,170
2016-02-27T07:30:04.259Z,170
2016-02-27T07:31:04.325Z,170
2016-02-27T07:32:04.390Z,170
2016-02-27T07:33:04.143Z,170
2016-02-27T07:34:04.364Z,165
2016-02-27T07:35:04.289Z,165
2016-02-27T07:36:04.369Z,165
2016-02-27T07:37:04.387Z,170
2016-02-27T07:38:04.499Z,170
2016-02-27T07:39:04.314Z,170
2016-02-27T07:40:04.443Z,170
2016-02-27T07:41:04.398Z,170
2016-02-27T07:42:04.386Z,175
2016-02-27T07:43:04.372Z,175
2016-02-27T07:44:04.406Z,180
2016-02-27T07:45:04.987Z,180
2016-02-27T07:46:04.411Z,185
2016-02-27T07:47:04.414Z,185
2016-02-27T07:48:04.417Z,190
2016-02-27T07:49:04.639Z,190
2016-02-27T07:50:04.422Z,195
2016-02-27T07:51:04.566Z,195
2016-02-27T07:52:04.428Z,200
2016-02-27T07:53:04.602Z,200
2016-02-27T07:54:04.480Z,200
2016-02-27T07:55:04.529Z,200
2016-02-27T07:56:04.517Z,205
2016-02-27T07:57:04.582Z,200
2016-02-27T07:58:04.537Z,200
2016-02-27T07:59:04.556Z,195
2016-02-27T08:00:10.824Z,195
2016-02-27T08:01:04.593Z,195
2016-02-27T08:02:04.767Z,195
2016-02-27T08:03:04.473Z,200
2016-02-27T08:04:04.617Z,200
2016-02-27T08:05:04.620Z,200
2016-02-27T08:06:04.856Z,200
2016-02-27T08:07:04.718Z,200
2016-02-27T08:08:04.675Z,200
2016-02-27T08:09:04.677Z,205
2016-02-27T08:10:04.773Z,205
2016-02-27T08:11:04.728Z,205
2016-02-27T08:12:04.747Z,210
2016-02-27T08:13:04.750Z,210
2016-02-27T08:14:06.158Z,210
2016-02-27T08:15:04.786Z,205
2016-02-27T08:16:04.774Z,205
2016-02-27T08:17:04.808Z,205
2016-02-27T08:18:04.810Z,205
2016-02-27T08:19:04.844Z,205
2016-02-27T08:20:11.113Z,205
2016-02-27T08:21:04.944Z,205
2016-02-27T08:22:04.869Z,205
2016-02-27T08:23:04.871Z,210
2016-02-27T08:24:04.904Z,205
2016-02-27T08:25:04.892Z,205
2016-02-27T08:26:04.769Z,205
2016-02-27T08:27:04.929Z,210
2016-02-27T08:28:05.134Z,210
2016-02-27T08:29:04.965Z,210
2016-02-27T08:30:05.373Z,210
2016-02-27T08:31:04.971Z,210
2016-02-27T08:32:05.035Z,210
2016-02-27T08:33:05.023Z,210
2016-02-27T08:34:05.040Z,210
2016-02-27T08:35:05.059Z,210
2016-02-27T08:36:04.656Z,210
2016-02-27T08:37:05.081Z,210
2016-02-27T08:38:05.099Z,210
2016-02-27T08:39:05.117Z,210
2016-02-27T08:40:05.104Z,215
2016-02-27T08:41:05.123Z,215
2016-02-27T08:42:05.125Z,215
2016-02-27T08:43:05.425Z,215
2016-02-27T08:44:05.193Z,215
2016-02-27T08:45:05.211Z,215
2016-02-27T08:46:06.105Z,215
2016-02-27T08:47:05.200Z,220
2016-02-27T08:48:05.219Z,220
2016-02-27T08:49:05.393Z,220
2016-02-27T08:50:05.272Z,220
2016-02-27T08:51:11.571Z,220
2016-02-27T08:52:05.261Z,225
2016-02-27T08:53:05.280Z,225
2016-02-27T08:54:18.048Z,225
2016-02-27T08:55:05.597Z,230
2016-02-27T08:56:05.616Z,230
2016-02-27T08:57:05.337Z,230
2016-02-27T08:58:05.387Z,230
2016-02-27T08:59:05.373Z,235
2016-02-27T09:00:18.173Z,240
2016-02-27T09:01:05.410Z,245
2016-02-27T09:02:05.491Z,250
2016-02-27T09:03:05.448Z,260
2016-02-27T09:04:05.528Z,255
2016-02-27T09:05:05.453Z,260
2016-02-27T09:06:11.814Z,265
2016-02-27T09:07:05.504Z,265
2016-02-27T09:08:05.554Z,270
2016-02-27T09:09:18.244Z,275
2016-02-27T09:10:05.512Z,280
2016-02-27T09:11:24.797Z,280
2016-02-27T09:12:05.550Z,280
2016-02-27T09:13:31.240Z,275
2016-02-27T09:14:24.273Z,280
2016-02-27T09:15:36.917Z,280
2016-02-27T09:16:05.608Z,280
2016-02-27T09:17:05.641Z,280
2016-02-27T09:18:05.581Z,285
2016-02-27T09:19:05.771Z,290
2016-02-27T09:20:05.696Z,290
2016-02-27T09:21:05.714Z,290
2016-02-27T09:22:06.029Z,290
2016-02-27T09:23:05.782Z,290
2016-02-27T09:24:06.004Z,290
2016-02-27T09:25:05.818Z,295
2016-02-27T09:26:05.775Z,295
2016-02-27T09:27:05.808Z,300
2016-02-27T09:28:05.810Z,300
2016-02-27T09:29:05.846Z,300
2016-02-27T09:30:06.207Z,305
2016-02-27T09:31:12.210Z,310
2016-02-27T09:32:12.103Z,310
2016-02-27T09:33:05.887Z,315
2016-02-27T09:34:06.155Z,315
2016-02-27T09:35:06.111Z,315
2016-02-27T09:36:05.957Z,320
2016-02-27T09:37:06.039Z,320
2016-02-27T09:38:06.120Z,320
2016-02-27T09:39:05.934Z,325
2016-02-27T09:40:06.031Z,325
2016-02-27T09:41:06.300Z,325
2016-02-27T09:42:06.083Z,325
2016-02-27T09:43:06.195Z,325
2016-02-27T09:44:06.089Z,330
2016-02-27T09:45:06.107Z,330
2016-02-27T09:46:12.344Z,330
2016-02-27T09:47:06.362Z,330
2016-02-27T09:48:06.083Z,330
2016-02-27T09:49:06.399Z,330
2016-02-27T09:50:06.167Z,325
2016-02-27T09:51:06.279Z,325
2016-02-27T09:52:06.204Z,325
2016-02-27T09:53:06.487Z,325
2016-02-27T09:54:06.413Z,320
2016-02-27T09:55:06.259Z,320
2016-02-27T09:56:06.215Z,315
2016-02-27T09:57:06.280Z,310
2016-02-27T09:58:06.346Z,310
2016-02-27T09:59:06.316Z,305
2016-02-27T10:00:06.335Z,300
2016-02-27T10:01:06.306Z,295
2016-02-27T10:02:07.840Z,295
2016-02-27T10:03:06.312Z,290
2016-02-27T10:04:06.361Z,285
2016-02-27T10:05:06.458Z,285
2016-02-27T10:06:06.632Z,280
2016-02-27T10:07:06.525Z,280
2016-02-27T10:08:07.466Z,275
2016-02-27T10:09:06.406Z,280
2016-02-27T10:10:06.409Z,275
2016-02-27T10:11:06.551Z,275
2016-02-27T10:12:06.539Z,275
2016-02-27T10:13:06.854Z,275
2016-02-27T10:14:06.575Z,275
2016-02-27T10:15:06.516Z,270
2016-02-27T10:16:06.550Z,270
2016-02-27T10:17:06.584Z,270
2016-02-27T10:18:07.242Z,270
2016-02-27T10:19:12.964Z,270
2016-02-27T10:20:07.076Z,270
2016-02-27T10:21:06.532Z,270
2016-02-27T10:22:06.691Z,270
2016-02-27T10:23:06.693Z,270
2016-02-27T10:24:06.711Z,270
2016-02-27T10:25:19.714Z,270
2016-02-27T10:26:06.827Z,270
2016-02-27T10:27:06.751Z,280
2016-02-27T10:28:07.144Z,270
2016-02-27T10:29:06.788Z,270
2016-02-27T10:30:07.212Z,270
2016-02-27T10:31:07.027Z,270
2016-02-27T10:32:07.108Z,275
2016-02-27T10:33:06.860Z,275
2016-02-27T10:34:06.926Z,270
2016-02-27T10:35:13.429Z,270
2016-02-27T10:36:07.072Z,270
2016-02-27T10:37:07.012Z,275
2016-02-27T10:38:07.015Z,275
2016-02-27T10:39:06.923Z,270
2016-02-27T10:40:06.973Z,270
2016-02-27T10:41:07.039Z,270
2016-02-27T10:42:07.042Z,270
2016-02-27T10:43:07.106Z,270
2016-02-27T10:44:07.062Z,270
2016-02-27T10:45:07.097Z,270
2016-02-27T10:46:07.177Z,265
2016-02-27T10:47:07.070Z,265
2016-02-27T10:48:07.089Z,270
2016-02-27T10:49:07.342Z,270
2016-02-27T10:50:07.360Z,270
2016-02-27T10:51:07.316Z,270
2016-02-27T10:52:07.286Z,270
2016-02-27T10:53:07.211Z,270
2016-02-27T10:54:07.308Z,270
2016-02-27T10:55:07.217Z,270
2016-02-27T10:56:07.220Z,270
2016-02-27T10:57:07.285Z,270
2016-02-27T10:58:07.288Z,270
2016-02-27T10:59:07.322Z,270
2016-02-27T11:00:07.340Z,270
2016-02-27T11:01:07.327Z,270
2016-02-27T11:02:07.376Z,270
2016-02-27T11:03:07.332Z,275
2016-02-27T11:04:07.398Z,270
2016-02-27T11:05:07.540Z,270
2016-02-27T11:06:07.824Z,270
2016-02-27T11:07:07.577Z,270
2016-02-27T11:08:07.393Z,275
2016-02-27T11:09:07.442Z,275
2016-02-27T11:10:07.414Z,275
2016-02-27T11:11:07.744Z,275
2016-02-27T11:12:07.465Z,275
2016-02-27T11:13:07.609Z,275
2016-02-27T11:14:07.800Z,275
2016-02-27T11:15:08.005Z,275
2016-02-27T11:16:07.773Z,275
2016-02-27T11:17:07.573Z,275
2016-02-27T11:18:07.888Z,275
2016-02-27T11:19:07.734Z,275
2016-02-27T11:20:07.862Z,270
2016-02-27T11:21:07.647Z,270
2016-02-27T11:22:08.228Z,270
2016-02-27T11:23:08.152Z,270
2016-02-27T11:24:07.811Z,270
2016-02-27T11:25:20.423Z,270
2016-02-27T11:26:07.800Z,275
2016-02-27T11:27:07.678Z,270
2016-02-27T11:28:08.008Z,270
2016-02-27T11:29:07.903Z,265
2016-02-27T11:30:07.796Z,265
2016-02-27T11:31:20.877Z,265
2016-02-27T11:32:07.864Z,265
2016-02-27T11:33:27.443Z,265
2016-02-27T11:34:08.228Z,265
2016-02-27T11:35:08.231Z,265
2016-02-27T11:36:08.140Z,260
2016-02-27T11:37:07.987Z,260
2016-02-27T11:38:08.083Z,260
2016-02-27T11:39:08.163Z,260
2016-02-27T11:40:08.479Z,260
2016-02-27T11:41:08.575Z,255
2016-02-27T11:42:27.093Z,255
2016-02-27T11:43:08.081Z,255
2016-02-27T11:44:08.208Z,255
2016-02-27T11:45:07.555Z,255
2016-02-27T11:46:14.432Z,250
2016-02-27T11:47:08.326Z,250
2016-02-27T11:48:08.250Z,250
2016-02-27T11:49:08.565Z,250
2016-02-27T11:50:08.817Z,250
2016-02-27T11:51:08.367Z,250
2016-02-27T11:52:08.308Z,245
2016-02-27T11:53:08.483Z,245
2016-02-27T11:54:08.236Z,245
2016-02-27T11:55:08.519Z,245
2016-02-27T11:56:09.272Z,245
2016-02-27T11:57:08.321Z,245
2016-02-27T11:58:08.527Z,245
2016-02-27T11:59:08.280Z,245
2016-02-27T12:00:08.313Z,245
2016-02-27T12:01:08.880Z,245
2016-02-27T12:02:08.350Z,245
2016-02-27T12:03:08.525Z,245
2016-02-27T12:04:08.918Z,250
2016-02-27T12:05:08.780Z,255
2016-02-27T12:06:09.080Z,250
2016-02-27T12:07:08.707Z,250
2016-02-27T12:08:09.070Z,250
2016-02-27T12:09:21.526Z,250
2016-02-27T12:10:09.279Z,255
2016-02-27T12:11:12.749Z,255
2016-02-27T12:12:09.877Z,255
2016-02-27T12:13:08.598Z,260
2016-02-27T12:14:08.929Z,260
2016-02-27T12:15:08.589Z,260
2016-02-27T12:16:08.575Z,265
2016-02-27T12:17:08.673Z,265
2016-02-27T12:18:08.581Z,265
2016-02-27T12:19:08.725Z,265
2016-02-27T12:20:08.992Z,265
2016-02-27T12:21:08.886Z,265
2016-02-27T12:22:08.701Z,265
2016-02-27T12:23:08.767Z,270
2016-02-27T12:24:22.456Z,270
2016-02-27T12:25:09.428Z,270
2016-02-27T12:26:08.790Z,270
2016-02-27T12:27:08.761Z,270
2016-02-27T12:28:08.842Z,275
2016-02-27T12:29:09.111Z,275
2016-02-27T12:30:09.019Z,275
2016-02-27T12:31:09.335Z,275
2016-02-27T12:32:08.806Z,275
2016-02-27T12:33:08.903Z,275
2016-02-27T12:34:09.015Z,275
2016-02-27T12:35:09.127Z,275
2016-02-27T12:36:09.567Z,275
2016-02-27T12:37:09.851Z,275
2016-02-27T12:38:09.151Z,280
2016-02-27T12:39:08.997Z,285
2016-02-27T12:40:08.937Z,290
2016-02-27T12:41:09.252Z,295
2016-02-27T12:42:15.521Z,290
2016-02-27T12:43:15.289Z,285
2016-02-27T12:44:09.073Z,275
2016-02-27T12:45:22.013Z,265
2016-02-27T12:46:09.297Z,265
2016-02-27T12:47:28.534Z,260
2016-02-27T12:48:09.349Z,265
2016-02-27T12:49:09.273Z,275
2016-02-27T12:50:10.026Z,290
2016-02-27T12:51:09.136Z,300
2016-02-27T12:52:09.232Z,290
2016-02-27T12:53:35.456Z,280
2016-02-27T12:54:13.319Z,275
2016-02-27T12:55:09.600Z,285
2016-02-27T12:56:09.617Z,275
2016-02-27T12:57:10.214Z,275
2016-02-27T12:58:10.486Z,270
2016-02-27T12:59:09.392Z,270
2016-02-27T13:00:22.241Z,260
2016-02-27T13:01:16.009Z,255
2016-02-27T13:02:09.619Z,250
2016-02-27T13:03:09.668Z,245
2016-02-27T13:04:09.468Z,255
2016-02-27T13:05:09.735Z,265
2016-02-27T13:06:28.772Z,280
2016-02-27T13:07:22.135Z,280
2016-02-27T13:08:35.357Z,280
2016-02-27T13:09:29.155Z,280
2016-02-27T13:10:09.796Z,275
2016-02-27T13:11:09.549Z,280
2016-02-27T13:12:10.160Z,280
2016-02-27T13:13:09.835Z,280
2016-02-27T13:14:09.526Z,285
2016-02-27T13:15:09.794Z,270
2016-02-27T13:16:10.313Z,255
2016-02-27T13:17:09.956Z,255
2016-02-27T13:18:22.804Z,245
2016-02-27T13:19:09.773Z,235
2016-02-27T13:20:09.886Z,225
2016-02-27T13:21:09.779Z,235
2016-02-27T13:22:09.673Z,240
2016-02-27T13:23:10.190Z,245
2016-02-27T13:24:10.225Z,250
2016-02-27T13:25:10.009Z,255
2016-02-27T13:26:10.261Z,250
2016-02-27T13:27:09.764Z,255
2016-02-27T13:28:09.814Z,255
2016-02-27T13:29:10.411Z,260
2016-02-27T13:30:10.241Z,270
2016-02-27T13:31:10.103Z,270
2016-02-27T13:32:09.902Z,270
2016-02-27T13:33:10.436Z,260
2016-02-27T13:34:10.188Z,255
2016-02-27T13:35:10.176Z,260
2016-02-27T13:36:11.098Z,255
2016-02-27T13:37:10.291Z,250
2016-02-27T13:38:09.997Z,245
2016-02-27T13:39:10.658Z,245
2016-02-27T13:40:10.257Z,230
2016-02-27T13:41:16.713Z,230
2016-02-27T13:42:10.245Z,230
2016-02-27T13:43:10.477Z,230
2016-02-27T13:44:10.537Z,230
2016-02-27T13:45:09.909Z,235
2016-02-27T13:46:23.893Z,240
2016-02-27T13:47:17.051Z,225
2016-02-27T13:48:11.270Z,220
2016-02-27T13:49:10.114Z,235
2016-02-27T13:50:10.771Z,245
2016-02-27T13:51:10.241Z,255
2016-02-27T13:52:10.821Z,245
2016-02-27T13:53:10.478Z,245
2016-02-27T13:54:10.386Z,255
2016-02-27T13:55:22.969Z,255
2016-02-27T13:56:10.532Z,260
2016-02-27T13:58:07.224Z,230
2016-02-27T13:58:19.977Z,230
2016-02-27T13:59:19.964Z,220
2016-02-27T14:00:20.092Z,220
2016-02-27T14:01:19.922Z,225
2016-02-27T14:02:19.535Z,225
2016-02-27T14:03:20.022Z,230
2016-02-27T14:04:20.790Z,235
2016-02-27T14:05:20.370Z,235
2016-02-27T14:06:20.061Z,235
2016-02-27T14:07:20.033Z,230
2016-02-27T14:08:20.097Z,230
2016-02-27T14:09:20.788Z,225
2016-02-27T14:10:20.977Z,230
2016-02-27T14:11:20.200Z,220
2016-02-27T14:12:20.389Z,210
2016-02-27T14:13:20.377Z,210
2016-02-27T14:14:20.129Z,210
2016-02-27T14:15:20.475Z,210
2016-02-27T14:16:20.728Z,210
2016-02-27T14:17:20.560Z,210
2016-02-27T14:18:20.374Z,210
2016-02-27T14:19:20.361Z,210
2016-02-27T14:20:20.254Z,210
2016-02-27T14:21:20.413Z,215
2016-02-27T14:22:20.510Z,215
2016-02-27T14:23:20.700Z,225
2016-02-27T14:24:20.468Z,230
2016-02-27T14:25:20.409Z,230
2016-02-27T14:26:20.426Z,230
2016-02-27T14:27:20.851Z,225
2016-02-27T14:28:21.168Z,230
2016-02-27T14:29:20.531Z,230
2016-02-27T14:30:20.550Z,230
2016-02-27T14:31:20.885Z,230
2016-02-27T14:32:20.777Z,220
2016-02-27T14:33:21.093Z,210
2016-02-27T14:34:20.501Z,210
2016-02-27T14:35:20.754Z,210
2016-02-27T14:36:20.788Z,205
2016-02-27T14:37:20.807Z,210
2016-02-27T14:38:20.825Z,215
2016-02-27T14:39:33.281Z,220
2016-02-27T14:40:20.607Z,220
2016-02-27T14:41:39.890Z,220
2016-02-27T14:42:20.346Z,215
2016-02-27T14:43:20.880Z,215
2016-02-27T14:44:21.601Z,215
2016-02-27T14:45:33.620Z,225
2016-02-27T14:46:22.139Z,225
2016-02-27T14:47:21.391Z,225
2016-02-27T14:48:20.972Z,225
2016-02-27T14:49:21.131Z,225
2016-02-27T14:50:21.306Z,225
2016-02-27T14:51:33.652Z,230
2016-02-27T14:52:20.858Z,230
2016-02-27T14:53:40.297Z,225
2016-02-27T14:54:21.675Z,230
2016-02-27T14:55:52.131Z,230